sensor_id;sensor_type;location;lat;lon;timestamp;pressure;altitude;pressure_sealevel;temperature;humidity
31681;BME280;18281;51.364;9.566;2022-08-19T00:00:47;99617.63;;;15.95;100.00
31681;BME280;18281;51.364;9.566;2022-08-19T00:03:13;99625.97;;;16.11;100.00
31681;BME280;18281;51.364;9.566;2022-08-19T00:05:38;99625.53;;;15.85;100.00
31681;BME280;18281;51.364;9.566;2022-08-19T00:08:11;99621.00;;;15.97;100.00
31681;BME280;18281;51.364;9.566;2022-08-19T00:10:39;99620.03;;;15.98;100.00
31681;BME280;18281;51.364;9.566;2022-08-19T00:13:07;99625.66;;;15.83;100.00
31681;BME280;18281;51.364;9.566;2022-08-19T00:15:33;99627.00;;;15.99;100.00
31681;BME280;18281;51.364;9.566;2022-08-19T00:17:58;99633.34;;;15.86;100.00
31681;BME280;18281;51.364;9.566;2022-08-19T00:20:30;99621.00;;;15.97;100.00
31681;BME280;18281;51.364;9.566;2022-08-19T00:22:55;99619.50;;;16.04;100.00
31681;BME280;18281;51.364;9.566;2022-08-19T00:25:21;99615.91;;;16.05;100.00
31681;BME280;18281;51.364;9.566;2022-08-19T00:27:47;99615.63;;;16.08;100.00
31681;BME280;18281;51.364;9.566;2022-08-19T00:30:18;99615.41;;;15.90;100.00
31681;BME280;18281;51.364;9.566;2022-08-19T00:32:53;99617.72;;;15.83;100.00
31681;BME280;18281;51.364;9.566;2022-08-19T00:35:22;99609.25;;;15.89;100.00
31681;BME280;18281;51.364;9.566;2022-08-19T00:37:52;99618.09;;;15.79;100.00
31681;BME280;18281;51.364;9.566;2022-08-19T00:40:18;99610.94;;;15.90;100.00
31681;BME280;18281;51.364;9.566;2022-08-19T00:42:50;99597.44;;;15.93;100.00
31681;BME280;18281;51.364;9.566;2022-08-19T00:45:22;99596.16;;;15.88;100.00
31681;BME280;18281;51.364;9.566;2022-08-19T00:47:53;99604.72;;;16.01;100.00
31681;BME280;18281;51.364;9.566;2022-08-19T00:50:20;99599.88;;;15.85;100.00
31681;BME280;18281;51.364;9.566;2022-08-19T00:52:48;99597.97;;;15.87;100.00
31681;BME280;18281;51.364;9.566;2022-08-19T00:55:26;99598.16;;;15.96;100.00
31681;BME280;18281;51.364;9.566;2022-08-19T00:58:03;99597.66;;;15.81;100.00
31681;BME280;18281;51.364;9.566;2022-08-19T01:00:35;99601.84;;;15.83;100.00
31681;BME280;18281;51.364;9.566;2022-08-19T01:09:56;99584.72;;;16.08;100.00
31681;BME280;18281;51.364;9.566;2022-08-19T01:12:22;99587.38;;;15.87;100.00
31681;BME280;18281;51.364;9.566;2022-08-19T01:14:49;99581.28;;;16.18;100.00
31681;BME280;18281;51.364;9.566;2022-08-19T01:17:16;99578.84;;;16.05;100.00
31681;BME280;18281;51.364;9.566;2022-08-19T01:19:43;99587.66;;;15.52;100.00
31681;BME280;18281;51.364;9.566;2022-08-19T01:22:32;99584.09;;;15.74;100.00
31681;BME280;18281;51.364;9.566;2022-08-19T01:25:01;99585.09;;;15.83;100.00
31681;BME280;18281;51.364;9.566;2022-08-19T01:27:41;99563.41;;;15.89;100.00
31681;BME280;18281;51.364;9.566;2022-08-19T01:30:09;99575.28;;;15.73;100.00
31681;BME280;18281;51.364;9.566;2022-08-19T01:32:35;99572.69;;;16.04;100.00
31681;BME280;18281;51.364;9.566;2022-08-19T01:35:02;99577.16;;;16.04;100.00
31681;BME280;18281;51.364;9.566;2022-08-19T01:37:29;99583.22;;;15.95;100.00
31681;BME280;18281;51.364;9.566;2022-08-19T01:39:55;99587.59;;;16.05;100.00
31681;BME280;18281;51.364;9.566;2022-08-19T01:42:21;99595.38;;;15.76;100.00
31681;BME280;18281;51.364;9.566;2022-08-19T01:44:47;99594.03;;;15.82;100.00
31681;BME280;18281;51.364;9.566;2022-08-19T01:47:14;99588.28;;;15.76;100.00
31681;BME280;18281;51.364;9.566;2022-08-19T01:49:40;99587.38;;;15.87;100.00
31681;BME280;18281;51.364;9.566;2022-08-19T01:52:06;99596.88;;;15.90;100.00
31681;BME280;18281;51.364;9.566;2022-08-19T01:54:40;99586.19;;;16.01;100.00
31681;BME280;18281;51.364;9.566;2022-08-19T01:57:12;99590.66;;;15.80;100.00
31681;BME280;18281;51.364;9.566;2022-08-19T01:59:52;99589.06;;;15.88;100.00
31681;BME280;18281;51.364;9.566;2022-08-19T02:02:17;99593.78;;;15.85;100.00
31681;BME280;18281;51.364;9.566;2022-08-19T02:04:43;99594.88;;;15.82;100.00
31681;BME280;18281;51.364;9.566;2022-08-19T02:07:11;99591.13;;;15.85;100.00
31681;BME280;18281;51.364;9.566;2022-08-19T02:09:39;99599.53;;;15.57;100.00
31681;BME280;18281;51.364;9.566;2022-08-19T02:12:06;99595.91;;;15.70;100.00
31681;BME280;18281;51.364;9.566;2022-08-19T02:14:35;99601.19;;;15.70;100.00
31681;BME280;18281;51.364;9.566;2022-08-19T02:17:01;99595.13;;;15.79;100.00
31681;BME280;18281;51.364;9.566;2022-08-19T02:19:27;99589.63;;;15.92;100.00
31681;BME280;18281;51.364;9.566;2022-08-19T02:21:56;99596.56;;;15.83;100.00
31681;BME280;18281;51.364;9.566;2022-08-19T02:24:28;99599.97;;;15.63;100.00
31681;BME280;18281;51.364;9.566;2022-08-19T02:26:56;99588.53;;;15.95;100.00
31681;BME280;18281;51.364;9.566;2022-08-19T02:29:25;99583.13;;;15.75;100.00
31681;BME280;18281;51.364;9.566;2022-08-19T02:31:51;99579.28;;;15.68;100.00
31681;BME280;18281;51.364;9.566;2022-08-19T02:34:20;99581.31;;;15.97;100.00
31681;BME280;18281;51.364;9.566;2022-08-19T02:36:45;99592.53;;;15.89;100.00
31681;BME280;18281;51.364;9.566;2022-08-19T02:39:11;99597.22;;;16.06;100.00
31681;BME280;18281;51.364;9.566;2022-08-19T02:41:39;99598.34;;;15.83;100.00
31681;BME280;18281;51.364;9.566;2022-08-19T02:44:06;99593.13;;;15.92;100.00
31681;BME280;18281;51.364;9.566;2022-08-19T02:46:35;99600.22;;;15.92;100.00
31681;BME280;18281;51.364;9.566;2022-08-19T02:49:05;99601.25;;;16.01;100.00
31681;BME280;18281;51.364;9.566;2022-08-19T02:51:37;99595.81;;;15.81;100.00
31681;BME280;18281;51.364;9.566;2022-08-19T02:54:05;99594.78;;;15.93;100.00
31681;BME280;18281;51.364;9.566;2022-08-19T02:56:33;99600.25;;;15.59;100.00
31681;BME280;18281;51.364;9.566;2022-08-19T02:59:03;99599.84;;;15.64;100.00
31681;BME280;18281;51.364;9.566;2022-08-19T03:01:40;99596.63;;;16.03;100.00
31681;BME280;18281;51.364;9.566;2022-08-19T03:04:10;99591.56;;;15.90;100.00
31681;BME280;18281;51.364;9.566;2022-08-19T03:06:44;99588.16;;;15.78;100.00
31681;BME280;18281;51.364;9.566;2022-08-19T03:09:14;99591.16;;;15.95;100.00
31681;BME280;18281;51.364;9.566;2022-08-19T03:11:40;99597.88;;;15.77;100.00
31681;BME280;18281;51.364;9.566;2022-08-19T03:14:07;99596.72;;;15.91;100.00
31681;BME280;18281;51.364;9.566;2022-08-19T03:16:48;99610.16;;;15.79;100.00
31681;BME280;18281;51.364;9.566;2022-08-19T03:19:18;99604.72;;;15.80;100.00
31681;BME280;18281;51.364;9.566;2022-08-19T03:21:45;99613.25;;;15.84;100.00
31681;BME280;18281;51.364;9.566;2022-08-19T03:24:14;99610.59;;;15.84;100.00
31681;BME280;18281;51.364;9.566;2022-08-19T03:26:47;99615.59;;;15.77;100.00
31681;BME280;18281;51.364;9.566;2022-08-19T03:29:15;99610.34;;;15.87;100.00
31681;BME280;18281;51.364;9.566;2022-08-19T03:31:42;99613.53;;;15.81;100.00
31681;BME280;18281;51.364;9.566;2022-08-19T03:34:12;99617.41;;;15.76;100.00
31681;BME280;18281;51.364;9.566;2022-08-19T03:36:39;99616.31;;;15.79;100.00
31681;BME280;18281;51.364;9.566;2022-08-19T03:39:12;99622.38;;;15.70;100.00
31681;BME280;18281;51.364;9.566;2022-08-19T03:41:43;99621.00;;;15.75;100.00
31681;BME280;18281;51.364;9.566;2022-08-19T03:44:15;99621.59;;;15.79;100.00
31681;BME280;18281;51.364;9.566;2022-08-19T03:46:40;99616.81;;;15.94;100.00
31681;BME280;18281;51.364;9.566;2022-08-19T03:49:06;99634.50;;;15.72;100.00
31681;BME280;18281;51.364;9.566;2022-08-19T03:51:35;99635.88;;;15.55;100.00
31681;BME280;18281;51.364;9.566;2022-08-19T03:54:03;99638.81;;;15.73;100.00
31681;BME280;18281;51.364;9.566;2022-08-19T03:56:30;99636.94;;;15.85;100.00
31681;BME280;18281;51.364;9.566;2022-08-19T03:58:57;99626.31;;;15.75;100.00
31681;BME280;18281;51.364;9.566;2022-08-19T04:01:26;99621.47;;;15.81;100.00
31681;BME280;18281;51.364;9.566;2022-08-19T04:03:55;99630.03;;;15.73;100.00
31681;BME280;18281;51.364;9.566;2022-08-19T04:06:26;99625.88;;;15.59;100.00
31681;BME280;18281;51.364;9.566;2022-08-19T04:08:53;99622.88;;;15.85;100.00
31681;BME280;18281;51.364;9.566;2022-08-19T04:11:23;99626.66;;;15.71;100.00
31681;BME280;18281;51.364;9.566;2022-08-19T04:13:51;99633.69;;;15.60;100.00
31681;BME280;18281;51.364;9.566;2022-08-19T04:16:19;99634.69;;;15.81;100.00
31681;BME280;18281;51.364;9.566;2022-08-19T04:18:46;99629.66;;;15.99;100.00
31681;BME280;18281;51.364;9.566;2022-08-19T04:21:20;99638.25;;;15.70;100.00
31681;BME280;18281;51.364;9.566;2022-08-19T04:24:24;99646.06;;;15.60;100.00
31681;BME280;18281;51.364;9.566;2022-08-19T04:27:35;99642.31;;;15.74;100.00
31681;BME280;18281;51.364;9.566;2022-08-19T04:37:17;99631.41;;;15.88;100.00
31681;BME280;18281;51.364;9.566;2022-08-19T05:20:13;99656.88;;;15.68;100.00
31681;BME280;18281;51.364;9.566;2022-08-19T05:22:57;99662.69;;;16.04;100.00
31681;BME280;18281;51.364;9.566;2022-08-19T05:25:29;99649.53;;;15.93;100.00
31681;BME280;18281;51.364;9.566;2022-08-19T05:27:54;99645.22;;;16.13;100.00
31681;BME280;18281;51.364;9.566;2022-08-19T05:30:20;99642.75;;;16.21;100.00
31681;BME280;18281;51.364;9.566;2022-08-19T05:32:45;99642.56;;;15.92;100.00
31681;BME280;18281;51.364;9.566;2022-08-19T05:35:11;99644.69;;;16.19;100.00
31681;BME280;18281;51.364;9.566;2022-08-19T05:37:37;99640.91;;;16.43;100.00
31681;BME280;18281;51.364;9.566;2022-08-19T05:40:05;99634.66;;;16.23;100.00
31681;BME280;18281;51.364;9.566;2022-08-19T05:42:30;99635.25;;;16.26;100.00
31681;BME280;18281;51.364;9.566;2022-08-19T05:44:56;99631.84;;;16.46;100.00
31681;BME280;18281;51.364;9.566;2022-08-19T05:47:21;99626.41;;;16.47;100.00
31681;BME280;18281;51.364;9.566;2022-08-19T05:49:48;99628.88;;;16.39;100.00
31681;BME280;18281;51.364;9.566;2022-08-19T05:52:15;99629.59;;;16.62;100.00
31681;BME280;18281;51.364;9.566;2022-08-19T05:54:41;99630.19;;;16.75;100.00
31681;BME280;18281;51.364;9.566;2022-08-19T05:57:07;99634.38;;;16.78;100.00
31681;BME280;18281;51.364;9.566;2022-08-19T05:59:33;99633.50;;;16.68;100.00
31681;BME280;18281;51.364;9.566;2022-08-19T06:02:01;99625.41;;;16.59;100.00
31681;BME280;18281;51.364;9.566;2022-08-19T06:04:26;99623.06;;;16.76;100.00
31681;BME280;18281;51.364;9.566;2022-08-19T06:06:53;99625.19;;;16.82;100.00
31681;BME280;18281;51.364;9.566;2022-08-19T06:09:19;99625.78;;;16.34;100.00
31681;BME280;18281;51.364;9.566;2022-08-19T06:11:49;99628.34;;;16.35;100.00
31681;BME280;18281;51.364;9.566;2022-08-19T06:14:20;99627.88;;;16.30;100.00
31681;BME280;18281;51.364;9.566;2022-08-19T06:16:47;99626.84;;;16.52;100.00
31681;BME280;18281;51.364;9.566;2022-08-19T06:19:16;99628.25;;;16.25;100.00
31681;BME280;18281;51.364;9.566;2022-08-19T06:21:44;99626.84;;;16.21;100.00
31681;BME280;18281;51.364;9.566;2022-08-19T06:24:13;99629.38;;;16.85;100.00
31681;BME280;18281;51.364;9.566;2022-08-19T06:26:43;99629.97;;;16.98;100.00
31681;BME280;18281;51.364;9.566;2022-08-19T06:29:11;99635.72;;;16.63;100.00
31681;BME280;18281;51.364;9.566;2022-08-19T06:31:40;99632.44;;;16.90;100.00
31681;BME280;18281;51.364;9.566;2022-08-19T06:34:06;99639.13;;;16.84;100.00
31681;BME280;18281;51.364;9.566;2022-08-19T06:36:35;99651.56;;;16.93;100.00
31681;BME280;18281;51.364;9.566;2022-08-19T06:39:10;99642.22;;;16.89;100.00
31681;BME280;18281;51.364;9.566;2022-08-19T06:41:42;99651.13;;;16.88;100.00
31681;BME280;18281;51.364;9.566;2022-08-19T06:44:08;99659.31;;;17.16;100.00
31681;BME280;18281;51.364;9.566;2022-08-19T06:46:35;99657.06;;;17.12;100.00
31681;BME280;18281;51.364;9.566;2022-08-19T06:49:00;99665.03;;;17.12;99.40
31681;BME280;18281;51.364;9.566;2022-08-19T06:51:26;99663.16;;;16.92;98.62
31681;BME280;18281;51.364;9.566;2022-08-19T06:53:53;99668.38;;;17.04;96.77
31681;BME280;18281;51.364;9.566;2022-08-19T06:56:24;99669.72;;;16.57;97.98
31681;BME280;18281;51.364;9.566;2022-08-19T06:58:56;99680.09;;;17.11;98.08
31681;BME280;18281;51.364;9.566;2022-08-19T07:01:21;99692.53;;;17.20;97.40
31681;BME280;18281;51.364;9.566;2022-08-19T07:03:47;99696.69;;;17.03;98.21
31681;BME280;18281;51.364;9.566;2022-08-19T07:06:16;99701.66;;;16.87;97.95
31681;BME280;18281;51.364;9.566;2022-08-19T07:08:44;99704.63;;;16.63;98.08
31681;BME280;18281;51.364;9.566;2022-08-19T07:11:14;99705.63;;;17.02;98.66
31681;BME280;18281;51.364;9.566;2022-08-19T07:13:40;99710.66;;;17.15;97.78
31681;BME280;18281;51.364;9.566;2022-08-19T07:16:11;99708.06;;;17.25;97.34
31681;BME280;18281;51.364;9.566;2022-08-19T07:18:38;99700.34;;;17.22;96.60
31681;BME280;18281;51.364;9.566;2022-08-19T07:21:12;99699.31;;;16.93;97.15
31681;BME280;18281;51.364;9.566;2022-08-19T07:23:38;99705.66;;;17.12;97.64
31681;BME280;18281;51.364;9.566;2022-08-19T07:26:13;99705.31;;;16.96;96.51
31681;BME280;18281;51.364;9.566;2022-08-19T07:28:39;99716.91;;;16.95;98.02
31681;BME280;18281;51.364;9.566;2022-08-19T07:31:10;99715.97;;;17.05;96.96
31681;BME280;18281;51.364;9.566;2022-08-19T07:33:35;99724.88;;;17.04;97.74
31681;BME280;18281;51.364;9.566;2022-08-19T07:36:03;99725.81;;;16.63;98.05
31681;BME280;18281;51.364;9.566;2022-08-19T07:38:29;99729.22;;;17.05;98.73
31681;BME280;18281;51.364;9.566;2022-08-19T07:40:55;99731.75;;;16.76;99.13
31681;BME280;18281;51.364;9.566;2022-08-19T07:43:20;99733.88;;;16.82;98.76
31681;BME280;18281;51.364;9.566;2022-08-19T07:45:50;99723.88;;;16.96;97.64
31681;BME280;18281;51.364;9.566;2022-08-19T07:48:15;99723.09;;;17.05;97.62
31681;BME280;18281;51.364;9.566;2022-08-19T07:50:40;99726.25;;;16.89;98.03
31681;BME280;18281;51.364;9.566;2022-08-19T07:53:06;99723.78;;;17.07;97.96
31681;BME280;18281;51.364;9.566;2022-08-19T07:55:31;99728.13;;;17.08;98.05
31681;BME280;18281;51.364;9.566;2022-08-19T07:57:57;99720.03;;;16.79;98.56
31681;BME280;18281;51.364;9.566;2022-08-19T08:00:22;99710.44;;;16.87;98.25
31681;BME280;18281;51.364;9.566;2022-08-19T08:02:48;99715.81;;;17.07;98.55
31681;BME280;18281;51.364;9.566;2022-08-19T08:05:13;99724.06;;;17.14;98.57
31681;BME280;18281;51.364;9.566;2022-08-19T08:07:57;99728.50;;;17.44;97.94
31681;BME280;18281;51.364;9.566;2022-08-19T08:10:41;99722.50;;;17.42;97.33
31681;BME280;18281;51.364;9.566;2022-08-19T08:13:07;99725.72;;;17.46;97.06
31681;BME280;18281;51.364;9.566;2022-08-19T08:15:32;99722.81;;;17.18;98.36
31681;BME280;18281;51.364;9.566;2022-08-19T08:17:57;99720.84;;;17.60;96.71
31681;BME280;18281;51.364;9.566;2022-08-19T08:20:24;99721.53;;;17.53;96.39
31681;BME280;18281;51.364;9.566;2022-08-19T08:22:49;99726.16;;;17.60;96.38
31681;BME280;18281;51.364;9.566;2022-08-19T08:25:34;99725.47;;;17.88;95.52
31681;BME280;18281;51.364;9.566;2022-08-19T08:28:01;99729.66;;;17.90;95.02
31681;BME280;18281;51.364;9.566;2022-08-19T08:30:29;99731.19;;;17.93;95.48
31681;BME280;18281;51.364;9.566;2022-08-19T08:32:55;99737.47;;;17.72;95.94
31681;BME280;18281;51.364;9.566;2022-08-19T08:35:22;99728.41;;;17.75;95.49
31681;BME280;18281;51.364;9.566;2022-08-19T08:37:49;99735.13;;;17.79;95.31
31681;BME280;18281;51.364;9.566;2022-08-19T08:43:07;99742.66;;;17.74;96.17
31681;BME280;18281;51.364;9.566;2022-08-19T08:45:35;99745.88;;;17.97;95.02
31681;BME280;18281;51.364;9.566;2022-08-19T08:48:14;99754.97;;;17.75;96.00
31681;BME280;18281;51.364;9.566;2022-08-19T08:50:43;99755.94;;;18.03;95.36
31681;BME280;18281;51.364;9.566;2022-08-19T08:53:16;99759.69;;;18.10;94.39
31681;BME280;18281;51.364;9.566;2022-08-19T08:55:44;99758.75;;;18.31;94.29
31681;BME280;18281;51.364;9.566;2022-08-19T08:58:14;99756.50;;;17.97;95.69
31681;BME280;18281;51.364;9.566;2022-08-19T09:00:47;99753.84;;;18.07;94.35
31681;BME280;18281;51.364;9.566;2022-08-19T09:03:20;99755.97;;;18.13;94.17
31681;BME280;18281;51.364;9.566;2022-08-19T09:08:28;99758.03;;;17.80;95.77
31681;BME280;18281;51.364;9.566;2022-08-19T09:10:56;99759.72;;;18.01;94.26
31681;BME280;18281;51.364;9.566;2022-08-19T09:13:48;99767.81;;;18.09;93.42
31681;BME280;18281;51.364;9.566;2022-08-19T09:16:21;99761.38;;;18.12;93.18
31681;BME280;18281;51.364;9.566;2022-08-19T09:18:55;99752.72;;;18.09;91.93
31681;BME280;18281;51.364;9.566;2022-08-19T09:21:23;99752.84;;;18.37;92.11
31681;BME280;18281;51.364;9.566;2022-08-19T09:23:51;99758.88;;;18.10;91.41
31681;BME280;18281;51.364;9.566;2022-08-19T09:26:20;99760.56;;;18.11;92.05
31681;BME280;18281;51.364;9.566;2022-08-19T09:28:47;99762.97;;;18.14;91.19
31681;BME280;18281;51.364;9.566;2022-08-19T09:31:16;99767.56;;;18.12;91.87
31681;BME280;18281;51.364;9.566;2022-08-19T09:33:41;99762.41;;;18.20;91.24
31681;BME280;18281;51.364;9.566;2022-08-19T09:36:11;99757.88;;;18.50;91.13
31681;BME280;18281;51.364;9.566;2022-08-19T09:38:38;99754.25;;;18.41;89.91
31681;BME280;18281;51.364;9.566;2022-08-19T09:41:07;99752.16;;;18.45;89.92
31681;BME280;18281;51.364;9.566;2022-08-19T09:43:34;99744.88;;;18.47;89.57
31681;BME280;18281;51.364;9.566;2022-08-19T09:46:03;99750.63;;;18.33;88.30
31681;BME280;18281;51.364;9.566;2022-08-19T09:48:31;99751.59;;;18.32;88.57
31681;BME280;18281;51.364;9.566;2022-08-19T09:51:08;99752.03;;;18.37;88.79
31681;BME280;18281;51.364;9.566;2022-08-19T09:53:36;99751.19;;;18.36;88.60
31681;BME280;18281;51.364;9.566;2022-08-19T09:56:03;99751.59;;;18.51;88.40
31681;BME280;18281;51.364;9.566;2022-08-19T09:58:29;99753.38;;;18.51;88.17
31681;BME280;18281;51.364;9.566;2022-08-19T10:00:56;99756.97;;;18.79;89.22
31681;BME280;18281;51.364;9.566;2022-08-19T10:03:22;99758.84;;;18.49;88.00
31681;BME280;18281;51.364;9.566;2022-08-19T10:05:48;99745.97;;;18.54;88.18
31681;BME280;18281;51.364;9.566;2022-08-19T10:08:18;99752.63;;;18.68;88.54
31681;BME280;18281;51.364;9.566;2022-08-19T10:10:44;99753.34;;;18.70;88.75
31681;BME280;18281;51.364;9.566;2022-08-19T10:13:11;99752.09;;;18.65;88.09
31681;BME280;18281;51.364;9.566;2022-08-19T10:15:37;99750.97;;;18.67;88.66
31681;BME280;18281;51.364;9.566;2022-08-19T10:18:06;99746.78;;;18.65;87.96
31681;BME280;18281;51.364;9.566;2022-08-19T10:20:31;99733.75;;;19.09;87.52
31681;BME280;18281;51.364;9.566;2022-08-19T10:22:57;99722.97;;;19.38;86.78
31681;BME280;18281;51.364;9.566;2022-08-19T10:25:24;99728.03;;;19.32;86.74
31681;BME280;18281;51.364;9.566;2022-08-19T10:27:51;99725.59;;;18.92;86.98
31681;BME280;18281;51.364;9.566;2022-08-19T10:30:17;99723.44;;;19.06;87.46
31681;BME280;18281;51.364;9.566;2022-08-19T10:32:44;99715.47;;;19.24;85.82
31681;BME280;18281;51.364;9.566;2022-08-19T10:35:11;99715.59;;;19.50;86.28
31681;BME280;18281;51.364;9.566;2022-08-19T10:37:38;99718.69;;;19.46;86.40
31681;BME280;18281;51.364;9.566;2022-08-19T10:40:08;99715.06;;;19.47;85.40
31681;BME280;18281;51.364;9.566;2022-08-19T10:42:36;99716.72;;;19.48;85.38
31681;BME280;18281;51.364;9.566;2022-08-19T10:45:02;99718.09;;;19.52;85.56
31681;BME280;18281;51.364;9.566;2022-08-19T10:47:27;99712.41;;;19.65;84.38
31681;BME280;18281;51.364;9.566;2022-08-19T10:49:54;99712.88;;;19.78;84.42
31681;BME280;18281;51.364;9.566;2022-08-19T10:52:49;99713.91;;;20.03;83.08
31681;BME280;18281;51.364;9.566;2022-08-19T10:55:15;99719.38;;;19.75;83.60
31681;BME280;18281;51.364;9.566;2022-08-19T10:57:59;99714.50;;;19.89;83.73
31681;BME280;18281;51.364;9.566;2022-08-19T11:00:25;99714.63;;;19.87;81.84
31681;BME280;18281;51.364;9.566;2022-08-19T11:02:51;99714.72;;;19.96;82.68
31681;BME280;18281;51.364;9.566;2022-08-19T11:05:18;99705.94;;;19.67;83.19
31681;BME280;18281;51.364;9.566;2022-08-19T11:07:44;99702.31;;;19.68;82.62
31681;BME280;18281;51.364;9.566;2022-08-19T11:10:12;99698.25;;;20.00;81.81
31681;BME280;18281;51.364;9.566;2022-08-19T11:12:39;99696.41;;;20.01;82.24
31681;BME280;18281;51.364;9.566;2022-08-19T11:15:06;99688.50;;;19.91;82.06
31681;BME280;18281;51.364;9.566;2022-08-19T11:17:33;99689.66;;;19.88;82.01
31681;BME280;18281;51.364;9.566;2022-08-19T11:19:58;99675.19;;;20.09;81.73
31681;BME280;18281;51.364;9.566;2022-08-19T11:22:27;99674.63;;;20.32;81.58
31681;BME280;18281;51.364;9.566;2022-08-19T11:24:52;99680.88;;;20.67;80.12
31681;BME280;18281;51.364;9.566;2022-08-19T11:27:17;99671.94;;;20.50;79.06
31681;BME280;18281;51.364;9.566;2022-08-19T11:29:43;99679.63;;;20.96;78.20
31681;BME280;18281;51.364;9.566;2022-08-19T11:32:10;99672.78;;;20.85;78.18
31681;BME280;18281;51.364;9.566;2022-08-19T11:34:36;99678.81;;;20.52;78.46
31681;BME280;18281;51.364;9.566;2022-08-19T11:37:02;99683.34;;;20.60;78.28
31681;BME280;18281;51.364;9.566;2022-08-19T11:39:30;99677.72;;;20.71;76.73
31681;BME280;18281;51.364;9.566;2022-08-19T11:42:01;99679.31;;;20.30;76.84
31681;BME280;18281;51.364;9.566;2022-08-19T11:44:45;99670.91;;;20.77;76.72
31681;BME280;18281;51.364;9.566;2022-08-19T11:47:11;99666.41;;;20.77;75.41
31681;BME280;18281;51.364;9.566;2022-08-19T11:49:37;99666.34;;;21.04;76.01
31681;BME280;18281;51.364;9.566;2022-08-19T11:52:03;99667.88;;;20.72;76.70
31681;BME280;18281;51.364;9.566;2022-08-19T11:54:28;99669.94;;;20.86;76.60
31681;BME280;18281;51.364;9.566;2022-08-19T11:56:54;99669.09;;;21.29;75.43
31681;BME280;18281;51.364;9.566;2022-08-19T11:59:20;99667.06;;;21.14;74.33
31681;BME280;18281;51.364;9.566;2022-08-19T12:01:46;99664.47;;;21.55;73.82
31681;BME280;18281;51.364;9.566;2022-08-19T12:04:11;99672.47;;;21.64;73.76
31681;BME280;18281;51.364;9.566;2022-08-19T12:06:38;99663.84;;;21.78;73.72
31681;BME280;18281;51.364;9.566;2022-08-19T12:09:07;99673.81;;;21.68;74.09
31681;BME280;18281;51.364;9.566;2022-08-19T12:11:35;99663.97;;;22.01;73.95
31681;BME280;18281;51.364;9.566;2022-08-19T12:14:02;99658.13;;;21.65;73.89
31681;BME280;18281;51.364;9.566;2022-08-19T12:16:29;99658.78;;;21.58;73.46
31681;BME280;18281;51.364;9.566;2022-08-19T12:18:56;99654.78;;;21.54;73.68
31681;BME280;18281;51.364;9.566;2022-08-19T12:21:26;99653.09;;;21.62;74.10
31681;BME280;18281;51.364;9.566;2022-08-19T12:23:56;99653.28;;;22.01;73.19
31681;BME280;18281;51.364;9.566;2022-08-19T12:26:23;99646.06;;;22.18;72.41
31681;BME280;18281;51.364;9.566;2022-08-19T12:28:49;99646.09;;;22.10;72.07
31681;BME280;18281;51.364;9.566;2022-08-19T12:31:15;99638.38;;;22.15;71.74
31681;BME280;18281;51.364;9.566;2022-08-19T12:33:41;99640.91;;;22.08;72.53
31681;BME280;18281;51.364;9.566;2022-08-19T12:36:10;99653.41;;;22.24;71.25
31681;BME280;18281;51.364;9.566;2022-08-19T12:38:38;99638.50;;;22.47;72.36
31681;BME280;18281;51.364;9.566;2022-08-19T12:41:05;99627.00;;;23.09;70.58
31681;BME280;18281;51.364;9.566;2022-08-19T12:43:31;99636.09;;;23.00;71.44
31681;BME280;18281;51.364;9.566;2022-08-19T12:45:57;99635.91;;;22.70;71.72
31681;BME280;18281;51.364;9.566;2022-08-19T12:48:23;99639.47;;;22.54;71.84
31681;BME280;18281;51.364;9.566;2022-08-19T12:50:48;99627.84;;;22.22;72.30
31681;BME280;18281;51.364;9.566;2022-08-19T12:53:14;99621.34;;;22.16;70.91
31681;BME280;18281;51.364;9.566;2022-08-19T12:55:40;99620.19;;;22.67;70.46
31681;BME280;18281;51.364;9.566;2022-08-19T12:58:07;99625.63;;;22.42;70.86
31681;BME280;18281;51.364;9.566;2022-08-19T13:00:33;99619.94;;;22.85;71.09
31681;BME280;18281;51.364;9.566;2022-08-19T13:02:59;99622.50;;;22.38;71.23
31681;BME280;18281;51.364;9.566;2022-08-19T13:05:28;99627.38;;;22.18;70.97
31681;BME280;18281;51.364;9.566;2022-08-19T13:07:56;99624.38;;;22.13;71.37
31681;BME280;18281;51.364;9.566;2022-08-19T13:10:25;99621.66;;;22.21;70.90
31681;BME280;18281;51.364;9.566;2022-08-19T13:12:53;99618.03;;;22.62;71.04
31681;BME280;18281;51.364;9.566;2022-08-19T13:15:20;99612.09;;;22.83;71.18
31681;BME280;18281;51.364;9.566;2022-08-19T13:17:47;99607.56;;;23.15;69.37
31681;BME280;18281;51.364;9.566;2022-08-19T13:20:18;99607.91;;;23.58;69.41
31681;BME280;18281;51.364;9.566;2022-08-19T13:22:44;99609.59;;;23.36;69.16
31681;BME280;18281;51.364;9.566;2022-08-19T13:25:10;99607.22;;;23.18;68.39
31681;BME280;18281;51.364;9.566;2022-08-19T13:27:37;99613.41;;;23.42;67.97
31681;BME280;18281;51.364;9.566;2022-08-19T13:30:03;99617.72;;;23.28;69.09
31681;BME280;18281;51.364;9.566;2022-08-19T13:32:49;99618.84;;;22.71;69.43
31681;BME280;18281;51.364;9.566;2022-08-19T13:35:33;99619.50;;;22.73;70.33
31681;BME280;18281;51.364;9.566;2022-08-19T13:37:58;99624.13;;;22.48;71.04
31681;BME280;18281;51.364;9.566;2022-08-19T13:40:25;99625.31;;;22.76;70.66
31681;BME280;18281;51.364;9.566;2022-08-19T13:42:53;99624.47;;;22.53;70.67
31681;BME280;18281;51.364;9.566;2022-08-19T13:45:21;99628.91;;;22.60;71.04
31681;BME280;18281;51.364;9.566;2022-08-19T13:47:49;99613.72;;;22.92;69.80
31681;BME280;18281;51.364;9.566;2022-08-19T13:50:18;99614.13;;;23.13;70.09
31681;BME280;18281;51.364;9.566;2022-08-19T13:52:44;99620.03;;;23.08;70.00
31681;BME280;18281;51.364;9.566;2022-08-19T13:55:11;99616.13;;;22.79;68.74
31681;BME280;18281;51.364;9.566;2022-08-19T13:57:37;99615.59;;;23.15;68.25
31681;BME280;18281;51.364;9.566;2022-08-19T14:00:12;99603.28;;;23.29;68.34
31681;BME280;18281;51.364;9.566;2022-08-19T14:02:39;99613.63;;;23.09;68.13